Puebla, Mexico

10:18 AM CST on February 06, 2016 (GMT -0600)
San Francisco | | Change Station
CLOSE
Current Station
Personal Weather Station
Location: Pueba, PUEBLA
Elevation: 6923 ft
Nearby Weather Stations

Elev 6923 ft 19.02 °N, 98.23 °W | Updated 8 minutes ago

Partly Cloudy
Partly Cloudy
64.2 °F
Feels Like 64.2 °F
N
0.0
Wind Variable Wind from NNW
Gusts 4.0 mph

Today
High -- | Low -- °F
--% Chance of Precip.
Yesterday
High -- | Low -- °F
Precip. -- in
Pressure 30.45 in
Visibility 6.0 miles
Clouds Few 20000 ft
Dew Point 40 °F
Humidity 42%
Rainfall 0.00 in
Snow Depth Not available.
7:06 AM 6:29 PM
Waning Crescent, 5% visible
SPECI MMMX 061544Z 06004KT 6SM FEW200 15/01 A3045 NOSIG RMK 8/001 HZY
Pressure 30.45 in
Visibility 6.0 miles
Clouds Few 20000 ft
Dew Point 40 °F
Humidity 42%
Rainfall 0.00 in
Snow Depth Not available.
7:06 AM 6:29 PM
Waning Crescent, 5% visible
SPECI MMMX 061544Z 06004KT 6SM FEW200 15/01 A3045 NOSIG RMK 8/001 HZY

10-Day Weather Forecast

No radar image for this location.
×

Almanac

Astronomy

Feb. 06, 2016 Rise Set
Actual Time
Civil Twilight
Nautical Twilight
Astronomical Twilight
Moon
Length of Visible Light
Length of Day
Tomorrow will be .
, % of the Moon is Illuminated

Today's Extremes

Country Highs Country Lows

Community

WunderPhotos

Upload Photos

1,891,004 photos uploaded!

WunderBlog® & News

Nearby

Air Quality

  Air Quality AQ Index Pollutant
Not available.

Snow Depth

Station Depth Elevation

Earthquake Activity

City Distance Mag. Time & Date
Minimum magnitude displayed is 2.5.

Coastal Water Temperatures

Place Temperature

Stations

Nearby Weather Stations

Station Location Temp. Windchill Dew Point Humidity Wind Precip. Elev Updated Type